createdAt,value
2019-02-27T00:01:19.736Z,99522.38
2019-02-27T00:03:49.114Z,99524.55
2019-02-27T00:06:18.575Z,99521.00
2019-02-27T00:08:48.160Z,99520.36
2019-02-27T00:11:17.826Z,99509.78
2019-02-27T00:13:47.292Z,99511.94
2019-02-27T00:16:16.996Z,99502.62
2019-02-27T00:18:46.368Z,99503.61
2019-02-27T00:21:15.736Z,99502.75
2019-02-27T00:23:45.221Z,99502.30
2019-02-27T00:26:14.708Z,99495.77
2019-02-27T00:28:44.079Z,99505.20
2019-02-27T00:31:13.471Z,99502.45
2019-02-27T00:33:42.947Z,99506.64
2019-02-27T00:36:12.935Z,99511.77
2019-02-27T00:38:42.637Z,99510.58
2019-02-27T00:41:12.978Z,99506.39
2019-02-27T00:43:42.538Z,99499.10
2019-02-27T00:46:13.422Z,99500.56
2019-02-27T00:48:43.149Z,99503.24
2019-02-27T00:51:12.984Z,99501.08
2019-02-27T00:53:42.415Z,99501.84
2019-02-27T00:56:12.239Z,99500.86
2019-02-27T00:58:42.330Z,99503.22
2019-02-27T01:01:12.783Z,99502.30
2019-02-27T01:03:42.741Z,99501.19
2019-02-27T01:06:14.808Z,99494.96
2019-02-27T01:08:43.830Z,99494.05
2019-02-27T01:11:13.410Z,99489.25
2019-02-27T01:13:42.760Z,99483.61
2019-02-27T01:16:12.160Z,99487.55
2019-02-27T01:18:41.613Z,99486.69
2019-02-27T01:21:11.152Z,99483.73
2019-02-27T01:23:43.711Z,99489.84
2019-02-27T01:26:11.750Z,99486.94
2019-02-27T01:28:44.718Z,99486.25
2019-02-27T01:31:12.252Z,99493.66
2019-02-27T01:33:41.723Z,99499.95
2019-02-27T01:36:11.170Z,99501.33
2019-02-27T01:38:40.809Z,99498.86
2019-02-27T01:41:10.168Z,99497.73
2019-02-27T01:43:39.935Z,99499.63
2019-02-27T01:46:10.130Z,99501.88
2019-02-27T01:48:42.740Z,99497.67
2019-02-27T01:51:10.592Z,99501.34
2019-02-27T01:53:41.256Z,99498.86
2019-02-27T01:56:10.778Z,99502.40
2019-02-27T01:58:43.315Z,99502.73
2019-02-27T02:01:11.283Z,99496.58
2019-02-27T02:03:40.830Z,99501.03
2019-02-27T02:06:10.193Z,99500.57
2019-02-27T02:08:39.909Z,99499.26
2019-02-27T02:11:09.592Z,99498.07
2019-02-27T02:14:01.801Z,99509.08
2019-02-27T02:17:07.456Z,99503.50
2019-02-27T02:20:09.667Z,99504.44
2019-02-27T02:23:13.992Z,99508.22
2019-02-27T02:25:55.533Z,99512.82
2019-02-27T02:29:01.269Z,99500.28
2019-02-27T02:31:42.521Z,99498.20
2019-02-27T02:34:49.092Z,99492.96
2019-02-27T02:37:57.837Z,99491.77
2019-02-27T02:40:56.534Z,99497.53
2019-02-27T02:44:02.557Z,99503.69
2019-02-27T02:47:19.509Z,99509.45
2019-02-27T02:50:29.599Z,99510.80
2019-02-27T02:53:10.772Z,99505.80
2019-02-27T02:56:09.907Z,99509.36
2019-02-27T02:59:25.927Z,99515.66
2019-02-27T03:02:39.767Z,99530.47
2019-02-27T03:05:46.063Z,99530.28
2019-02-27T03:08:28.696Z,99529.54
2019-02-27T03:11:31.612Z,99532.11
2019-02-27T03:14:25.346Z,99532.34
2019-02-27T03:17:33.296Z,99528.76
2019-02-27T03:20:45.093Z,99529.61
2019-02-27T03:24:00.959Z,99534.56
2019-02-27T03:27:13.752Z,99537.88
2019-02-27T03:30:06.425Z,99542.41
2019-02-27T03:33:01.310Z,99534.37
2019-02-27T03:35:53.707Z,99537.78
2019-02-27T03:39:19.109Z,99536.53
2019-02-27T03:42:25.287Z,99541.08
2019-02-27T03:45:15.134Z,99537.31
2019-02-27T03:48:11.438Z,99533.58
2019-02-27T03:51:16.242Z,99524.65
2019-02-27T03:54:28.688Z,99519.02
2019-02-27T03:57:22.926Z,99527.38
2019-02-27T04:00:31.494Z,99533.41
2019-02-27T04:03:37.480Z,99541.77
2019-02-27T04:06:22.805Z,99540.28
2019-02-27T04:08:59.210Z,99547.45
2019-02-27T04:11:29.323Z,99549.66
2019-02-27T04:14:04.066Z,99553.48
2019-02-27T04:16:31.812Z,99567.97
2019-02-27T04:19:04.535Z,99570.55
2019-02-27T04:21:32.685Z,99566.85
2019-02-27T04:24:02.119Z,99573.58
2019-02-27T04:26:31.489Z,99567.28
2019-02-27T04:29:04.152Z,99567.97
2019-02-27T04:31:32.212Z,99579.34
2019-02-27T04:34:01.595Z,99568.88
2019-02-27T04:36:30.964Z,99569.17
2019-02-27T04:39:02.484Z,99574.11
2019-02-27T04:41:31.676Z,99570.98
2019-02-27T04:44:05.244Z,99574.06
2019-02-27T04:46:32.195Z,99577.58
2019-02-27T04:49:04.836Z,99582.08
2019-02-27T04:51:32.872Z,99584.34
2019-02-27T04:54:06.360Z,99592.09
2019-02-27T04:56:33.375Z,99590.77
2019-02-27T04:59:02.988Z,99591.24
2019-02-27T05:01:36.446Z,99603.41
2019-02-27T05:04:03.602Z,99610.20
2019-02-27T05:06:33.112Z,99599.28
2019-02-27T05:09:02.545Z,99606.17
2019-02-27T05:11:31.922Z,99615.39
2019-02-27T05:14:01.397Z,99618.01
2019-02-27T05:16:30.918Z,99616.20
2019-02-27T05:19:03.558Z,99624.48
2019-02-27T05:21:31.367Z,99624.38
2019-02-27T05:24:01.096Z,99629.12
2019-02-27T05:26:30.577Z,99629.63
2019-02-27T05:28:59.931Z,99638.38
2019-02-27T05:31:29.382Z,99641.80
2019-02-27T05:33:58.865Z,99651.27
2019-02-27T05:36:28.970Z,99651.27
2019-02-27T05:38:59.477Z,99653.82
2019-02-27T05:41:32.975Z,99662.55
2019-02-27T05:44:00.026Z,99654.70
2019-02-27T05:46:29.447Z,99661.88
2019-02-27T05:48:58.935Z,99663.59
2019-02-27T05:51:28.434Z,99668.31
2019-02-27T05:53:58.512Z,99680.14
2019-02-27T05:56:28.440Z,99680.55
2019-02-27T05:58:58.081Z,99694.11
2019-02-27T06:01:27.745Z,99692.41
2019-02-27T06:03:57.107Z,99704.44
2019-02-27T06:06:26.481Z,99711.44
2019-02-27T06:08:56.197Z,99723.23
2019-02-27T06:11:27.065Z,99721.66
2019-02-27T06:13:56.773Z,99725.48
2019-02-27T06:16:26.234Z,99729.00
2019-02-27T06:18:56.264Z,99735.10
2019-02-27T06:21:26.471Z,99742.57
2019-02-27T06:23:55.973Z,99740.14
2019-02-27T06:26:25.457Z,99742.86
2019-02-27T06:28:54.962Z,99741.41
2019-02-27T06:31:24.607Z,99740.27
2019-02-27T06:33:54.178Z,99741.12
2019-02-27T06:36:23.660Z,99739.52
2019-02-27T06:38:53.327Z,99750.55
2019-02-27T06:41:22.730Z,99755.13
2019-02-27T06:43:52.200Z,99755.61
2019-02-27T06:46:21.715Z,99754.19
2019-02-27T06:48:51.189Z,99754.69
2019-02-27T06:51:20.575Z,99752.65
2019-02-27T06:53:50.078Z,99755.52
2019-02-27T06:56:19.554Z,99749.77
2019-02-27T06:58:50.080Z,99750.33
2019-02-27T07:01:20.294Z,99753.98
2019-02-27T07:03:49.762Z,99751.35
2019-02-27T07:06:21.543Z,99755.13
2019-02-27T07:08:50.682Z,99755.45
2019-02-27T07:11:20.054Z,99761.78
2019-02-27T07:13:49.528Z,99762.50
2019-02-27T07:16:20.465Z,99761.14
2019-02-27T07:18:50.233Z,99771.06
2019-02-27T07:21:19.654Z,99768.66
2019-02-27T07:23:49.241Z,99770.65
2019-02-27T07:26:18.794Z,99773.67
2019-02-27T07:28:48.167Z,99766.80
2019-02-27T07:31:18.530Z,99769.11
2019-02-27T07:33:48.042Z,99767.88
2019-02-27T07:36:17.490Z,99784.12
2019-02-27T07:38:46.902Z,99771.91
2019-02-27T07:41:20.292Z,99771.47
2019-02-27T07:43:47.532Z,99781.04
2019-02-27T07:46:16.940Z,99786.69
2019-02-27T07:48:46.439Z,99787.81
2019-02-27T07:51:15.921Z,99785.58
2019-02-27T07:53:45.413Z,99784.22
2019-02-27T07:56:14.851Z,99787.87
2019-02-27T07:58:44.319Z,99790.05
2019-02-27T08:01:13.785Z,99789.55
2019-02-27T08:03:45.606Z,99793.66
2019-02-27T08:06:14.339Z,99788.11
2019-02-27T08:08:43.879Z,99785.88
2019-02-27T08:11:14.171Z,99792.19
2019-02-27T08:13:43.682Z,99793.44
2019-02-27T08:16:13.079Z,99795.95
2019-02-27T08:18:42.659Z,99791.90
2019-02-27T08:21:12.400Z,99799.62
2019-02-27T08:23:41.759Z,99804.53
2019-02-27T08:26:11.570Z,99808.28
2019-02-27T08:28:40.959Z,99810.72
2019-02-27T08:31:10.320Z,99813.12
2019-02-27T08:33:39.832Z,99802.66
2019-02-27T08:36:09.294Z,99810.05
2019-02-27T08:38:38.681Z,99812.59
2019-02-27T08:41:08.109Z,99814.41
2019-02-27T08:43:37.625Z,99822.12
2019-02-27T08:46:07.088Z,99817.86
2019-02-27T08:48:36.662Z,99822.06
2019-02-27T08:51:08.617Z,99823.98
2019-02-27T08:53:37.234Z,99823.98
2019-02-27T08:56:06.879Z,99822.88
2019-02-27T08:58:36.265Z,99828.13
2019-02-27T09:01:06.750Z,99823.21
2019-02-27T09:03:36.985Z,99825.81
2019-02-27T09:06:06.583Z,99830.05
2019-02-27T09:08:36.096Z,99837.96
2019-02-27T09:11:06.801Z,99839.09
2019-02-27T09:13:36.355Z,99835.75
2019-02-27T09:16:05.715Z,99842.88
2019-02-27T09:18:36.512Z,99846.53
2019-02-27T09:21:06.239Z,99844.08
2019-02-27T09:23:35.628Z,99852.73
2019-02-27T09:26:05.135Z,99855.16
2019-02-27T09:28:34.595Z,99859.78
2019-02-27T09:31:04.509Z,99855.97
2019-02-27T09:33:38.794Z,99860.23
2019-02-27T09:36:07.972Z,99862.11
2019-02-27T09:38:36.519Z,99862.75
2019-02-27T09:41:06.043Z,99866.47
2019-02-27T09:43:35.402Z,99880.36
2019-02-27T09:46:04.936Z,99878.91
2019-02-27T09:48:34.488Z,99883.64
2019-02-27T09:51:03.957Z,99884.33
2019-02-27T09:53:33.929Z,99891.80
2019-02-27T09:56:04.715Z,99894.78
2019-02-27T09:58:34.203Z,99895.56
2019-02-27T10:01:13.697Z,99894.44
2019-02-27T10:03:43.187Z,99897.52
2019-02-27T10:06:12.655Z,99897.97
2019-02-27T10:08:42.492Z,99896.81
2019-02-27T10:11:11.967Z,99897.05
2019-02-27T10:13:42.004Z,99906.30
2019-02-27T10:16:11.407Z,99903.63
2019-02-27T10:18:40.867Z,99907.53
2019-02-27T10:21:12.113Z,99905.36
2019-02-27T10:23:41.532Z,99917.05
2019-02-27T10:26:11.020Z,99921.91
2019-02-27T10:28:40.651Z,99923.23
2019-02-27T10:31:10.058Z,99916.46
2019-02-27T10:33:39.503Z,99916.73
2019-02-27T10:36:10.678Z,99915.60
2019-02-27T10:38:40.619Z,99916.67
2019-02-27T10:41:10.229Z,99919.70
2019-02-27T10:43:39.727Z,99914.75
2019-02-27T10:46:09.582Z,99916.34
2019-02-27T10:48:39.154Z,99911.72
2019-02-27T10:51:09.535Z,99912.20
2019-02-27T10:53:39.976Z,99905.67
2019-02-27T10:56:09.441Z,99912.41
2019-02-27T10:58:38.811Z,99913.33
2019-02-27T11:01:08.253Z,99909.20
2019-02-27T11:03:37.719Z,99910.11
2019-02-27T11:06:07.086Z,99908.40
2019-02-27T11:08:36.594Z,99910.77
2019-02-27T11:11:06.099Z,99904.22
2019-02-27T11:13:35.528Z,99907.97
2019-02-27T11:16:05.008Z,99904.51
2019-02-27T11:18:34.473Z,99905.03
2019-02-27T11:21:04.044Z,99908.12
2019-02-27T11:23:33.493Z,99917.59
2019-02-27T11:26:02.867Z,99911.70
2019-02-27T11:28:32.346Z,99917.55
2019-02-27T11:31:01.850Z,99914.52
2019-02-27T11:33:33.421Z,99915.13
2019-02-27T11:36:03.207Z,99914.41
2019-02-27T11:38:33.560Z,99922.77
2019-02-27T11:41:03.037Z,99923.56
2019-02-27T11:43:32.428Z,99915.00
2019-02-27T11:46:04.048Z,99919.55
2019-02-27T11:48:33.428Z,99919.03
2019-02-27T11:51:02.795Z,99920.58
2019-02-27T11:53:35.677Z,99909.68
2019-02-27T11:56:03.568Z,99911.34
2019-02-27T11:58:35.249Z,99905.92
2019-02-27T12:01:05.477Z,99903.59
2019-02-27T12:03:34.947Z,99902.65
2019-02-27T12:06:05.333Z,99909.61
2019-02-27T12:08:35.609Z,99911.91
2019-02-27T12:11:05.104Z,99925.36
2019-02-27T12:13:35.006Z,99924.39
2019-02-27T12:16:06.230Z,99919.19
2019-02-27T12:18:35.809Z,99917.48
2019-02-27T12:21:05.265Z,99910.56
2019-02-27T12:23:34.771Z,99911.88
2019-02-27T12:26:04.247Z,99904.72
2019-02-27T12:28:33.723Z,99898.08
2019-02-27T12:31:03.545Z,99900.17
2019-02-27T12:33:34.403Z,99901.47
2019-02-27T12:36:03.898Z,99893.50
2019-02-27T12:38:33.693Z,99891.53
2019-02-27T12:41:03.277Z,99884.46
2019-02-27T12:43:32.649Z,99885.25
2019-02-27T12:46:02.735Z,99884.37
2019-02-27T12:48:32.305Z,99887.98
2019-02-27T12:51:03.666Z,99888.38
2019-02-27T12:53:32.917Z,99892.56
2019-02-27T12:56:02.297Z,99890.59
2019-02-27T12:58:31.789Z,99899.70
2019-02-27T13:01:01.310Z,99893.05
2019-02-27T13:03:30.695Z,99892.69
2019-02-27T13:06:00.959Z,99884.20
2019-02-27T13:08:31.071Z,99886.53
2019-02-27T13:11:00.448Z,99887.55
2019-02-27T13:13:30.021Z,99889.50
2019-02-27T13:15:59.514Z,99891.73
2019-02-27T13:18:31.973Z,99893.06
2019-02-27T13:20:59.992Z,99890.69
2019-02-27T13:23:29.522Z,99895.70
2019-02-27T13:26:00.468Z,99899.38
2019-02-27T13:28:30.079Z,99896.63
2019-02-27T13:30:59.508Z,99897.81
2019-02-27T13:33:29.048Z,99904.80
2019-02-27T13:35:59.668Z,99905.93
2019-02-27T13:38:29.660Z,99907.88
2019-02-27T13:40:59.023Z,99905.53
2019-02-27T13:43:28.554Z,99903.86
2019-02-27T13:45:58.327Z,99905.25
2019-02-27T13:48:27.794Z,99909.34
2019-02-27T13:50:59.347Z,99904.98
2019-02-27T13:53:28.457Z,99902.19
2019-02-27T13:55:57.843Z,99904.69
2019-02-27T13:58:27.323Z,99908.17
2019-02-27T14:00:57.073Z,99904.13
2019-02-27T14:03:26.434Z,99911.25
2019-02-27T14:05:55.832Z,99913.16
2019-02-27T14:08:25.439Z,99920.81
2019-02-27T14:10:54.890Z,99918.08
2019-02-27T14:13:24.316Z,99922.39
2019-02-27T14:15:53.919Z,99917.25
2019-02-27T14:18:23.394Z,99912.22
2019-02-27T14:20:52.847Z,99916.30
2019-02-27T14:23:22.259Z,99917.91
2019-02-27T14:25:51.747Z,99916.84
2019-02-27T14:28:21.664Z,99913.38
2019-02-27T14:30:51.294Z,99922.55
2019-02-27T14:33:21.717Z,99913.75
2019-02-27T14:35:51.512Z,99919.82
2019-02-27T14:38:21.809Z,99914.30
2019-02-27T14:40:51.993Z,99912.48
2019-02-27T14:43:21.774Z,99905.56
2019-02-27T14:45:51.288Z,99909.58
2019-02-27T14:48:21.437Z,99912.98
2019-02-27T14:50:51.670Z,99911.67
2019-02-27T14:53:21.131Z,99914.43
2019-02-27T14:55:50.624Z,99916.40
2019-02-27T14:58:24.084Z,99918.27
2019-02-27T15:00:51.315Z,99915.82
2019-02-27T15:03:20.768Z,99912.61
2019-02-27T15:05:50.290Z,99915.89
2019-02-27T15:08:19.658Z,99912.44
2019-02-27T15:10:49.015Z,99918.95
2019-02-27T15:13:18.918Z,99916.67
2019-02-27T15:15:48.393Z,99906.55
2019-02-27T15:18:17.764Z,99902.67
2019-02-27T15:20:47.177Z,99899.77
2019-02-27T15:23:16.623Z,99905.75
2019-02-27T15:25:46.089Z,99902.90
2019-02-27T15:28:15.488Z,99902.53
2019-02-27T15:30:46.769Z,99904.48
2019-02-27T15:33:16.470Z,99901.66
2019-02-27T15:35:46.045Z,99895.41
2019-02-27T15:38:15.447Z,99895.37
2019-02-27T15:40:45.294Z,99906.86
2019-02-27T15:43:17.482Z,99893.52
2019-02-27T15:45:47.960Z,99894.45
2019-02-27T15:48:17.226Z,99895.61
2019-02-27T15:50:46.746Z,99895.96
2019-02-27T15:53:16.122Z,99898.41
2019-02-27T15:55:45.484Z,99905.77
2019-02-27T15:58:15.237Z,99907.55
2019-02-27T16:00:44.715Z,99915.63
2019-02-27T16:03:14.095Z,99915.70
2019-02-27T16:05:43.750Z,99914.67
2019-02-27T16:08:15.289Z,99909.12
2019-02-27T16:10:54.340Z,99915.39
2019-02-27T16:13:15.828Z,99911.05
2019-02-27T16:15:48.441Z,99915.77
2019-02-27T16:18:16.497Z,99917.98
2019-02-27T16:20:47.003Z,99911.17
2019-02-27T16:23:17.135Z,99911.23
2019-02-27T16:25:46.584Z,99919.54
2019-02-27T16:28:18.152Z,99920.41
2019-02-27T16:30:47.526Z,99925.50
2019-02-27T16:33:23.425Z,99917.23
2019-02-27T16:35:48.241Z,99926.41
2019-02-27T16:38:17.615Z,99931.16
2019-02-27T16:40:52.031Z,99926.27
2019-02-27T16:43:18.427Z,99926.72
2019-02-27T16:45:47.897Z,99931.86
2019-02-27T16:48:17.284Z,99933.58
2019-02-27T16:50:48.223Z,99935.13
2019-02-27T16:53:19.453Z,99936.89
2019-02-27T16:55:49.372Z,99938.34
2019-02-27T16:58:19.024Z,99941.95
2019-02-27T17:00:48.385Z,99940.05
2019-02-27T17:03:17.895Z,99947.78
2019-02-27T17:05:47.315Z,99954.50
2019-02-27T17:08:16.803Z,99951.48
2019-02-27T17:10:46.272Z,99956.77
2019-02-27T17:13:15.710Z,99955.63
2019-02-27T17:15:45.079Z,99952.41
2019-02-27T17:18:14.572Z,99950.70
2019-02-27T17:20:46.584Z,99954.67
2019-02-27T17:23:15.224Z,99952.67
2019-02-27T17:25:44.597Z,99948.66
2019-02-27T17:28:14.123Z,99941.44
2019-02-27T17:30:44.118Z,99942.09
2019-02-27T17:33:13.494Z,99942.95
2019-02-27T17:35:44.036Z,99942.01
2019-02-27T17:38:14.649Z,99943.77
2019-02-27T17:40:44.313Z,99939.56
2019-02-27T17:43:13.737Z,99939.19
2019-02-27T17:45:44.254Z,99936.41
2019-02-27T17:48:14.550Z,99925.75
2019-02-27T17:50:43.962Z,99930.53
2019-02-27T17:53:13.443Z,99933.83
2019-02-27T17:55:42.949Z,99930.61
2019-02-27T17:58:12.566Z,99941.48
2019-02-27T18:00:43.193Z,99945.00
2019-02-27T18:03:12.686Z,99941.27
2019-02-27T18:05:42.206Z,99949.56
2019-02-27T18:08:15.856Z,99953.94
2019-02-27T18:10:42.704Z,99952.26
2019-02-27T18:13:12.218Z,99957.12
2019-02-27T18:15:41.691Z,99954.02
2019-02-27T18:18:11.060Z,99956.14
2019-02-27T18:20:40.472Z,99949.16
2019-02-27T18:23:09.950Z,99954.80
2019-02-27T18:25:42.026Z,99952.02
2019-02-27T18:28:10.897Z,99950.30
2019-02-27T18:30:40.357Z,99951.95
2019-02-27T18:33:13.594Z,99958.07
2019-02-27T18:35:42.175Z,99955.30
2019-02-27T18:38:11.650Z,99959.67
2019-02-27T18:40:42.677Z,99955.79
2019-02-27T18:43:12.361Z,99953.50
2019-02-27T18:45:41.792Z,99951.45
2019-02-27T18:48:11.269Z,99952.39
2019-02-27T18:50:40.874Z,99943.69
2019-02-27T18:53:12.960Z,99934.94
2019-02-27T18:55:41.337Z,99938.95
2019-02-27T18:58:12.697Z,99944.55
2019-02-27T19:00:42.362Z,99954.52
2019-02-27T19:03:11.762Z,99956.31
2019-02-27T19:05:42.061Z,99953.21
2019-02-27T19:08:11.877Z,99955.45
2019-02-27T19:10:42.592Z,99959.30
2019-02-27T19:13:12.223Z,99950.23
2019-02-27T19:15:45.285Z,99954.56
2019-02-27T19:18:12.992Z,99955.66
2019-02-27T19:20:42.835Z,99958.45
2019-02-27T19:23:17.173Z,99954.77
2019-02-27T19:25:43.964Z,99962.13
2019-02-27T19:28:13.451Z,99965.03
2019-02-27T19:30:42.923Z,99964.70
2019-02-27T19:33:12.766Z,99957.68
2019-02-27T19:35:42.475Z,99950.25
2019-02-27T19:38:12.940Z,99948.30
2019-02-27T19:40:42.939Z,99946.32
2019-02-27T19:43:12.568Z,99938.33
2019-02-27T19:45:42.407Z,99934.55
2019-02-27T19:48:12.347Z,99935.71
2019-02-27T19:50:45.251Z,99940.48
2019-02-27T19:53:13.118Z,99931.13
2019-02-27T19:55:42.480Z,99932.91
2019-02-27T19:58:17.130Z,99917.34
2019-02-27T20:00:48.463Z,99919.06
2019-02-27T20:03:14.549Z,99921.44
2019-02-27T20:05:43.967Z,99917.23
2019-02-27T20:08:13.503Z,99921.41
2019-02-27T20:10:44.166Z,99922.06
2019-02-27T20:13:14.768Z,99927.83
2019-02-27T20:15:45.797Z,99926.80
2019-02-27T20:18:15.712Z,99922.70
2019-02-27T20:20:45.215Z,99925.59
2019-02-27T20:23:14.633Z,99920.59
2019-02-27T20:25:44.490Z,99917.75
2019-02-27T20:28:14.334Z,99908.77
2019-02-27T20:30:44.269Z,99913.09
2019-02-27T20:33:13.630Z,99921.67
2019-02-27T20:35:43.257Z,99922.08
2019-02-27T20:38:16.098Z,99922.53
2019-02-27T20:40:44.040Z,99915.90
2019-02-27T20:43:13.461Z,99913.48
2019-02-27T20:45:43.626Z,99905.13
2019-02-27T20:48:13.220Z,99901.20
2019-02-27T20:50:43.749Z,99895.24
2019-02-27T20:53:13.391Z,99887.14
2019-02-27T20:55:42.765Z,99884.82
2019-02-27T20:58:16.140Z,99877.87
2019-02-27T21:00:43.625Z,99881.84
2019-02-27T21:03:13.004Z,99882.72
2019-02-27T21:05:42.537Z,99880.48
2019-02-27T21:08:11.890Z,99874.05
2019-02-27T21:10:41.268Z,99868.80
2019-02-27T21:13:15.460Z,99866.18
2019-02-27T21:15:42.354Z,99865.12
2019-02-27T21:18:11.720Z,99857.75
2019-02-27T21:20:42.190Z,99860.28
2019-02-27T21:23:12.639Z,99852.34
2019-02-27T21:25:42.091Z,99844.53
2019-02-27T21:28:20.523Z,99843.22
2019-02-27T21:30:42.609Z,99841.35
2019-02-27T21:33:12.115Z,99838.87
2019-02-27T21:35:41.618Z,99834.20
2019-02-27T21:38:10.980Z,99831.05
2019-02-27T21:40:40.350Z,99831.35
2019-02-27T21:43:10.135Z,99818.02
2019-02-27T21:45:39.495Z,99826.39
2019-02-27T21:48:09.048Z,99821.61
2019-02-27T21:50:39.926Z,99816.65
2019-02-27T21:53:09.925Z,99811.80
2019-02-27T21:55:39.306Z,99809.29
2019-02-27T21:58:19.767Z,99805.36
2019-02-27T22:00:40.431Z,99800.45
2019-02-27T22:03:09.798Z,99805.14
2019-02-27T22:05:42.738Z,99802.45
2019-02-27T22:08:10.747Z,99800.52
2019-02-27T22:10:40.207Z,99800.85
2019-02-27T22:13:10.546Z,99791.11
2019-02-27T22:15:40.153Z,99793.17
2019-02-27T22:18:11.799Z,99788.94
2019-02-27T22:20:41.115Z,99786.09
2019-02-27T22:23:12.717Z,99786.42
2019-02-27T22:25:41.699Z,99778.55
2019-02-27T22:28:11.113Z,99791.62
2019-02-27T22:30:40.486Z,99789.84
2019-02-27T22:33:10.037Z,99789.84
2019-02-27T22:35:39.799Z,99795.55
2019-02-27T22:38:09.179Z,99788.48
2019-02-27T22:40:39.164Z,99787.57
2019-02-27T22:43:08.733Z,99785.80
2019-02-27T22:45:40.601Z,99787.57
2019-02-27T22:48:09.429Z,99791.67
2019-02-27T22:50:41.092Z,99794.59
2019-02-27T22:53:10.267Z,99785.40
2019-02-27T22:55:42.268Z,99790.65
2019-02-27T22:58:12.369Z,99788.53
2019-02-27T23:01:15.135Z,99785.11
2019-02-27T23:03:51.497Z,99787.73
2019-02-27T23:06:20.964Z,99784.71
2019-02-27T23:08:50.577Z,99779.06
2019-02-27T23:11:20.269Z,99782.56
2019-02-27T23:13:49.943Z,99780.96
2019-02-27T23:16:20.448Z,99782.67
2019-02-27T23:18:50.068Z,99777.48
2019-02-27T23:21:19.650Z,99780.21
2019-02-27T23:23:49.034Z,99783.23
2019-02-27T23:26:20.206Z,99779.43
2019-02-27T23:28:49.809Z,99776.06
2019-02-27T23:31:23.341Z,99776.30
2019-02-27T23:33:50.501Z,99782.50
2019-02-27T23:36:21.999Z,99787.98
2019-02-27T23:38:51.120Z,99784.77
2019-02-27T23:41:23.135Z,99784.88
2019-02-27T23:43:51.801Z,99786.37
2019-02-27T23:46:21.275Z,99790.41
2019-02-27T23:48:50.739Z,99789.22
2019-02-27T23:51:20.204Z,99787.16
2019-02-27T23:53:49.737Z,99782.47
2019-02-27T23:56:20.550Z,99789.49
2019-02-27T23:58:50.173Z,99787.58
